createdAt,value
2023-04-02T00:01:36.927Z,98247.75
2023-04-02T00:04:23.882Z,98248.56
2023-04-02T00:07:33.227Z,98250.31
2023-04-02T00:10:27.502Z,98256.34
2023-04-02T00:13:16.780Z,98248.50
2023-04-02T00:16:06.850Z,98229.81
2023-04-02T00:18:57.958Z,98251.28
2023-04-02T00:21:46.457Z,98260.78
2023-04-02T00:24:33.740Z,98265.09
2023-04-02T00:27:20.872Z,98271.13
2023-04-02T00:30:08.755Z,98253.94
2023-04-02T00:32:55.926Z,98273.69
2023-04-02T00:35:43.041Z,98277.09
2023-04-02T00:38:34.469Z,98269.47
2023-04-02T00:41:27.243Z,98278.94
2023-04-02T00:44:21.778Z,98287.56
2023-04-02T00:47:24.762Z,98283.31
2023-04-02T00:50:15.510Z,98283.22
2023-04-02T00:53:12.780Z,98285.84
2023-04-02T00:56:00.933Z,98290.13
2023-04-02T00:58:53.169Z,98291.88
2023-04-02T01:01:42.716Z,98267.84
2023-04-02T01:04:36.516Z,98294.47
2023-04-02T01:07:47.585Z,98286.78
2023-04-02T01:10:46.217Z,98298.00
2023-04-02T01:14:06.790Z,98299.75
2023-04-02T01:17:35.076Z,98298.91
2023-04-02T01:20:25.390Z,98303.22
2023-04-02T01:23:19.656Z,98301.59
2023-04-02T01:26:35.069Z,98309.34
2023-04-02T01:29:27.766Z,98307.59
2023-04-02T01:32:18.067Z,98312.78
2023-04-02T01:35:05.227Z,98315.28
2023-04-02T01:38:03.155Z,98312.78
2023-04-02T01:40:55.919Z,98312.72
2023-04-02T01:43:51.902Z,98314.41
2023-04-02T01:46:42.491Z,98320.44
2023-04-02T01:49:28.996Z,98315.38
2023-04-02T01:52:25.596Z,98326.53
2023-04-02T01:55:15.211Z,98335.09
2023-04-02T01:58:03.878Z,98335.97
2023-04-02T02:00:56.471Z,98331.69
2023-04-02T02:03:44.863Z,98330.03
2023-04-02T02:06:32.528Z,98336.94
2023-04-02T02:09:26.111Z,98332.56
2023-04-02T02:12:14.960Z,98335.09
2023-04-02T02:15:02.415Z,98333.47
2023-04-02T02:17:50.327Z,98335.25
2023-04-02T02:20:37.083Z,98338.66
2023-04-02T02:23:23.668Z,98328.41
2023-04-02T02:26:13.137Z,98344.75
2023-04-02T02:29:06.876Z,98328.47
2023-04-02T02:31:56.150Z,98352.44
2023-04-02T02:34:54.366Z,98346.44
2023-04-02T02:37:46.468Z,98350.72
2023-04-02T02:40:43.529Z,98355.88
2023-04-02T02:43:32.654Z,98356.72
2023-04-02T02:46:23.672Z,98361.03
2023-04-02T02:49:16.831Z,98353.34
2023-04-02T02:52:03.468Z,98367.91
2023-04-02T02:55:02.309Z,98371.34
2023-04-02T02:58:06.799Z,98362.72
2023-04-02T03:01:00.618Z,98372.25
2023-04-02T03:03:52.412Z,98379.94
2023-04-02T03:06:40.808Z,98374.75
2023-04-02T03:09:54.420Z,98381.72
2023-04-02T03:12:56.283Z,98384.28
2023-04-02T03:16:11.402Z,98385.16
2023-04-02T03:19:30.750Z,98388.59
2023-04-02T03:22:35.399Z,98387.66
2023-04-02T03:25:33.478Z,98332.78
2023-04-02T03:28:26.111Z,98396.25
2023-04-02T03:31:27.923Z,98406.56
2023-04-02T03:34:28.390Z,98403.16
2023-04-02T03:37:26.044Z,98403.97
2023-04-02T03:40:21.935Z,98413.44
2023-04-02T03:43:23.997Z,98421.16
2023-04-02T03:46:27.167Z,98427.16
2023-04-02T03:49:41.339Z,98427.13
2023-04-02T03:52:29.405Z,98435.75
2023-04-02T03:55:29.265Z,98431.44
2023-04-02T03:58:26.728Z,98438.31
2023-04-02T04:01:35.495Z,98440.00
2023-04-02T04:04:27.403Z,98436.63
2023-04-02T04:07:38.721Z,98440.09
2023-04-02T04:10:27.602Z,98433.25
2023-04-02T04:13:18.513Z,98461.63
2023-04-02T04:16:09.891Z,98457.31
2023-04-02T04:19:23.314Z,98453.91
2023-04-02T04:22:30.495Z,98451.34
2023-04-02T04:25:29.901Z,98450.47
2023-04-02T04:28:29.237Z,98474.50
2023-04-02T04:31:26.082Z,98474.53
2023-04-02T04:34:46.719Z,98476.22
2023-04-02T04:37:40.127Z,98479.66
2023-04-02T04:40:50.373Z,98484.00
2023-04-02T04:43:54.182Z,98481.41
2023-04-02T04:46:47.194Z,98490.00
2023-04-02T04:49:52.080Z,98497.72
2023-04-02T04:52:41.202Z,98502.00
2023-04-02T04:55:43.601Z,98479.69
2023-04-02T04:58:42.177Z,98505.44
2023-04-02T05:01:52.478Z,98512.34
2023-04-02T05:04:44.623Z,98512.31
2023-04-02T05:07:49.095Z,98526.03
2023-04-02T05:10:54.971Z,98520.03
2023-04-02T05:14:07.750Z,98524.34
2023-04-02T05:17:04.563Z,98519.19
2023-04-02T05:20:16.303Z,98472.81
2023-04-02T05:23:30.857Z,98540.66
2023-04-02T05:26:28.363Z,98534.66
2023-04-02T05:29:22.399Z,98544.09
2023-04-02T05:32:15.979Z,98538.94
2023-04-02T05:35:07.311Z,98535.50
2023-04-02T05:37:56.549Z,98544.97
2023-04-02T05:40:47.934Z,98552.69
2023-04-02T05:43:39.137Z,98543.25
2023-04-02T05:46:30.792Z,98558.72
2023-04-02T05:49:26.791Z,98557.00
2023-04-02T05:52:24.909Z,98558.69
2023-04-02T05:55:12.560Z,98561.28
2023-04-02T05:58:34.460Z,98555.25
2023-04-02T06:01:33.710Z,98568.16
2023-04-02T06:04:29.774Z,98562.13
2023-04-02T06:07:24.025Z,98576.75
2023-04-02T06:10:25.071Z,98595.66
2023-04-02T06:13:19.385Z,98584.50
2023-04-02T06:16:06.845Z,98587.94
2023-04-02T06:18:55.024Z,98600.81
2023-04-02T06:21:46.294Z,98599.09
2023-04-02T06:24:37.340Z,98596.53
2023-04-02T06:27:26.437Z,98597.41
2023-04-02T06:30:21.415Z,98616.31
2023-04-02T06:33:15.526Z,98621.47
2023-04-02T06:36:06.919Z,98598.25
2023-04-02T06:38:59.124Z,98620.63
2023-04-02T06:41:46.711Z,98626.63
2023-04-02T06:44:52.567Z,98632.63
2023-04-02T06:48:01.566Z,98639.50
2023-04-02T06:51:07.174Z,98641.19
2023-04-02T06:53:55.177Z,98645.47
2023-04-02T06:56:47.846Z,98648.91
2023-04-02T06:59:40.077Z,98638.53
2023-04-02T07:02:36.778Z,98663.44
2023-04-02T07:05:25.089Z,98665.13
2023-04-02T07:08:13.684Z,98663.41
2023-04-02T07:11:00.722Z,98676.28
2023-04-02T07:13:49.497Z,98667.72
2023-04-02T07:16:36.877Z,98676.34
2023-04-02T07:19:23.782Z,98683.25
2023-04-02T07:22:19.513Z,98671.16
2023-04-02T07:25:10.867Z,98692.59
2023-04-02T07:27:57.314Z,98694.31
2023-04-02T07:30:44.370Z,98688.25
2023-04-02T07:33:31.443Z,98681.22
2023-04-02T07:36:23.534Z,98678.59
2023-04-02T07:39:10.662Z,98679.44
2023-04-02T07:41:59.169Z,98700.84
2023-04-02T07:44:45.768Z,98699.94
2023-04-02T07:47:32.506Z,98710.19
2023-04-02T07:50:19.329Z,98707.72
2023-04-02T07:53:07.124Z,98705.78
2023-04-02T07:55:53.879Z,98711.88
2023-04-02T07:58:42.369Z,98717.00
2023-04-02T08:01:29.526Z,98724.78
2023-04-02T08:04:18.728Z,98725.72
2023-04-02T08:07:05.734Z,98734.19
2023-04-02T08:09:52.213Z,98728.13
2023-04-02T08:12:38.799Z,98740.06
2023-04-02T08:15:25.112Z,98727.25
2023-04-02T08:18:12.205Z,98735.03
2023-04-02T08:20:59.888Z,98741.78
2023-04-02T08:23:46.354Z,98742.56
2023-04-02T08:26:33.059Z,98767.44
2023-04-02T08:29:20.452Z,98777.84
2023-04-02T08:32:07.519Z,98777.91
2023-04-02T08:34:53.919Z,98764.84
2023-04-02T08:37:41.894Z,98775.03
2023-04-02T08:40:39.100Z,98787.63
2023-04-02T08:43:44.479Z,98788.31
2023-04-02T08:46:37.579Z,98766.78
2023-04-02T08:49:36.963Z,98799.25
2023-04-02T08:52:31.356Z,98799.03
2023-04-02T08:55:35.025Z,98795.56
2023-04-02T08:58:41.894Z,98808.44
2023-04-02T09:01:48.914Z,98804.25
2023-04-02T09:04:36.960Z,98787.88
2023-04-02T09:07:24.413Z,98815.19
2023-04-02T09:10:16.445Z,98827.09
2023-04-02T09:13:06.580Z,98814.03
2023-04-02T09:16:01.377Z,98824.00
2023-04-02T09:18:50.231Z,98824.00
2023-04-02T09:21:43.980Z,98834.88
2023-04-02T09:24:30.344Z,98827.44
2023-04-02T09:27:29.946Z,98844.31
2023-04-02T09:30:31.946Z,98837.81
2023-04-02T09:33:19.354Z,98844.56
2023-04-02T09:36:06.378Z,98821.38
2023-04-02T09:39:20.829Z,98851.22
2023-04-02T09:42:28.110Z,98848.44
2023-04-02T09:45:21.464Z,98856.34
2023-04-02T09:48:27.556Z,98868.00
2023-04-02T09:51:18.368Z,98867.84
2023-04-02T09:54:04.994Z,98866.06
2023-04-02T09:57:03.681Z,98869.91
2023-04-02T10:00:25.166Z,98873.66
2023-04-02T10:03:25.681Z,98874.66
2023-04-02T10:06:16.428Z,98883.75
2023-04-02T10:09:33.658Z,98883.91
2023-04-02T10:12:20.433Z,98869.97
2023-04-02T10:15:14.377Z,98888.03
2023-04-02T10:18:13.483Z,98868.28
2023-04-02T10:21:03.413Z,98897.66
2023-04-02T10:23:50.082Z,98898.19
2023-04-02T10:26:48.436Z,98896.81
2023-04-02T10:30:02.580Z,98892.09
2023-04-02T10:33:06.046Z,98907.81
2023-04-02T10:36:17.750Z,98901.81
2023-04-02T10:39:15.925Z,98908.25
2023-04-02T10:42:18.984Z,98899.09
2023-04-02T10:45:18.733Z,98905.72
2023-04-02T10:48:24.463Z,98914.34
2023-04-02T10:51:25.155Z,98920.44
2023-04-02T10:54:37.925Z,98931.44
2023-04-02T10:57:33.683Z,98921.38
2023-04-02T11:00:34.999Z,98928.34
2023-04-02T11:03:54.892Z,98935.22
2023-04-02T11:06:48.953Z,98926.28
2023-04-02T11:09:41.341Z,98932.31
2023-04-02T11:12:34.018Z,98936.75
2023-04-02T11:15:22.320Z,98922.88
2023-04-02T11:18:29.189Z,98924.38
2023-04-02T11:21:58.537Z,98940.50
2023-04-02T11:24:55.104Z,98944.69
2023-04-02T11:27:42.663Z,98950.25
2023-04-02T11:30:30.258Z,98954.88
2023-04-02T11:33:44.233Z,98955.84
2023-04-02T11:36:50.136Z,98951.09
2023-04-02T11:39:59.219Z,98955.31
2023-04-02T11:42:46.600Z,98963.59
2023-04-02T11:45:52.995Z,98964.41
2023-04-02T11:48:40.885Z,98961.38
2023-04-02T11:51:30.842Z,98959.19
2023-04-02T11:54:28.517Z,98970.75
2023-04-02T11:57:33.694Z,98968.75
2023-04-02T12:00:31.808Z,98960.03
2023-04-02T12:03:29.804Z,98966.09
2023-04-02T12:06:52.441Z,98980.84
2023-04-02T12:09:44.750Z,98983.88
2023-04-02T12:12:39.091Z,98954.91
2023-04-02T12:15:45.347Z,98980.00
2023-04-02T12:18:33.266Z,98970.25
2023-04-02T12:21:25.812Z,98990.84
2023-04-02T12:24:19.648Z,98937.91
2023-04-02T12:27:27.555Z,98936.38
2023-04-02T12:30:20.840Z,98973.84
2023-04-02T12:33:19.665Z,99004.00
2023-04-02T12:36:18.077Z,98998.88
2023-04-02T12:39:04.678Z,98981.03
2023-04-02T12:41:51.359Z,98979.25
2023-04-02T12:44:38.027Z,99006.16
2023-04-02T12:47:25.246Z,99013.69
2023-04-02T12:50:15.434Z,99020.69
2023-04-02T12:53:02.086Z,99029.59
2023-04-02T12:55:51.523Z,99052.44
2023-04-02T12:58:41.440Z,99057.81
2023-04-02T13:01:31.536Z,99056.16
2023-04-02T13:04:18.478Z,99053.63
2023-04-02T13:07:05.201Z,99048.44
2023-04-02T13:09:54.427Z,99066.53
2023-04-02T13:12:41.577Z,99056.16
2023-04-02T13:15:31.531Z,99063.00
2023-04-02T13:18:23.003Z,99070.72
2023-04-02T13:21:24.046Z,99077.59
2023-04-02T13:24:21.547Z,99073.25
2023-04-02T13:27:10.628Z,99087.00
2023-04-02T13:30:08.243Z,99036.09
2023-04-02T13:32:55.103Z,99087.81
2023-04-02T13:35:42.402Z,99086.88
2023-04-02T13:38:28.966Z,99086.88
2023-04-02T13:41:26.301Z,99096.28
2023-04-02T13:44:27.636Z,99095.34
2023-04-02T13:47:14.803Z,99095.41
2023-04-02T13:50:01.413Z,99086.75
2023-04-02T13:52:50.667Z,99110.88
2023-04-02T13:55:40.622Z,99037.38
2023-04-02T13:58:27.079Z,99114.31
2023-04-02T14:01:14.391Z,99116.00
2023-04-02T14:04:02.418Z,99124.50
2023-04-02T14:07:07.849Z,99128.88
2023-04-02T14:10:04.311Z,99132.31
2023-04-02T14:13:18.510Z,99144.97
2023-04-02T14:16:32.379Z,99140.63
2023-04-02T14:19:54.174Z,99151.88
2023-04-02T14:22:59.224Z,99163.06
2023-04-02T14:25:54.804Z,99155.28
2023-04-02T14:28:47.405Z,99164.84
2023-04-02T14:31:38.752Z,99176.88
2023-04-02T14:34:36.203Z,99176.88
2023-04-02T14:37:32.615Z,99174.28
2023-04-02T14:40:40.077Z,99181.13
2023-04-02T14:43:32.603Z,99163.88
2023-04-02T14:46:19.180Z,99176.06
2023-04-02T14:49:16.623Z,99184.84
2023-04-02T14:52:05.038Z,99189.00
2023-04-02T14:55:04.261Z,99188.16
2023-04-02T14:57:54.610Z,99191.53
2023-04-02T15:01:07.970Z,99195.97
2023-04-02T15:04:02.382Z,99196.81
2023-04-02T15:06:52.756Z,99198.59
2023-04-02T15:09:44.988Z,99207.16
2023-04-02T15:12:36.106Z,99207.16
2023-04-02T15:15:40.624Z,99200.09
2023-04-02T15:18:30.317Z,99201.75
2023-04-02T15:21:29.743Z,99217.22
2023-04-02T15:24:26.069Z,99225.03
2023-04-02T15:27:37.677Z,99169.81
2023-04-02T15:30:35.382Z,99229.22
2023-04-02T15:33:28.252Z,99232.59
2023-04-02T15:36:29.639Z,99235.97
2023-04-02T15:39:28.134Z,99250.56
2023-04-02T15:42:19.896Z,99248.13
2023-04-02T15:45:12.443Z,99253.19
2023-04-02T15:48:15.709Z,99255.06
2023-04-02T15:51:05.066Z,99257.53
2023-04-02T15:54:26.968Z,99251.31
2023-04-02T15:57:51.281Z,99259.03
2023-04-02T16:01:11.568Z,99271.94
2023-04-02T16:04:19.919Z,99280.53
2023-04-02T16:07:24.033Z,99269.13
2023-04-02T16:10:30.314Z,99283.97
2023-04-02T16:13:30.868Z,99290.03
2023-04-02T16:16:33.935Z,99291.72
2023-04-02T16:19:33.069Z,99282.03
2023-04-02T16:22:33.245Z,99307.81
2023-04-02T16:25:23.872Z,99314.78
2023-04-02T16:28:28.349Z,99319.16
2023-04-02T16:31:41.502Z,99324.31
2023-04-02T16:34:38.718Z,99300.16
2023-04-02T16:37:52.576Z,99312.06
2023-04-02T16:41:08.765Z,99337.19
2023-04-02T16:44:07.622Z,99336.91
2023-04-02T16:47:02.966Z,99352.31
2023-04-02T16:50:24.313Z,99358.84
2023-04-02T16:53:24.530Z,99367.53
2023-04-02T16:56:23.288Z,99370.91
2023-04-02T16:59:19.387Z,99375.88
2023-04-02T17:02:45.553Z,99387.72
2023-04-02T17:05:50.629Z,99384.97
2023-04-02T17:08:43.139Z,99399.50
2023-04-02T17:11:42.801Z,99397.91
2023-04-02T17:15:01.379Z,99400.22
2023-04-02T17:17:47.730Z,99408.81
2023-04-02T17:20:34.565Z,99410.38
2023-04-02T17:23:21.136Z,99409.47
2023-04-02T17:26:09.229Z,99423.06
2023-04-02T17:28:58.902Z,99433.16
2023-04-02T17:31:46.407Z,99429.78
2023-04-02T17:34:33.084Z,99436.63
2023-04-02T17:37:44.339Z,99446.03
2023-04-02T17:40:47.977Z,99450.22
2023-04-02T17:44:05.879Z,99453.44
2023-04-02T17:47:19.450Z,99471.47
2023-04-02T17:50:12.406Z,99475.47
2023-04-02T17:53:08.293Z,99478.72
2023-04-02T17:56:23.699Z,99488.06
2023-04-02T17:59:23.606Z,99494.16
2023-04-02T18:02:38.914Z,99500.91
2023-04-02T18:05:35.361Z,99520.41
2023-04-02T18:08:36.329Z,99517.78
2023-04-02T18:11:26.288Z,99524.59
2023-04-02T18:14:43.588Z,99533.09
2023-04-02T18:17:46.051Z,99541.25
2023-04-02T18:20:43.208Z,99544.69
2023-04-02T18:23:56.606Z,99552.94
2023-04-02T18:26:55.418Z,99551.00
2023-04-02T18:29:57.594Z,99564.66
2023-04-02T18:33:28.576Z,99559.13
2023-04-02T18:36:33.513Z,99575.72
2023-04-02T18:39:43.437Z,99566.91
2023-04-02T18:42:48.206Z,99601.84
2023-04-02T18:45:53.191Z,99607.66
2023-04-02T18:49:06.387Z,99605.66
2023-04-02T18:51:58.788Z,99612.47
2023-04-02T18:54:53.485Z,99625.31
2023-04-02T18:57:42.277Z,99628.31
2023-04-02T19:00:33.669Z,99625.75
2023-04-02T19:03:29.044Z,99646.56
2023-04-02T19:06:21.151Z,99647.03
2023-04-02T19:09:25.414Z,99659.75
2023-04-02T19:12:18.985Z,99649.41
2023-04-02T19:15:16.378Z,99670.84
2023-04-02T19:18:17.996Z,99673.72
2023-04-02T19:21:19.065Z,99677.97
2023-04-02T19:24:17.638Z,99689.88
2023-04-02T19:27:22.352Z,99688.75
2023-04-02T19:30:43.071Z,99698.84
2023-04-02T19:33:48.412Z,99708.16
2023-04-02T19:36:56.176Z,99713.81
2023-04-02T19:40:19.544Z,99727.47
2023-04-02T19:43:08.576Z,99726.47
2023-04-02T19:45:55.522Z,99737.31
2023-04-02T19:49:03.504Z,99748.28
2023-04-02T19:51:50.796Z,99740.66
2023-04-02T19:54:38.328Z,99743.03
2023-04-02T19:57:24.889Z,99751.63
2023-04-02T20:00:14.108Z,99754.81
2023-04-02T20:03:00.828Z,99753.28
2023-04-02T20:05:47.884Z,99761.38
2023-04-02T20:08:36.275Z,99767.47
2023-04-02T20:11:22.672Z,99774.44
2023-04-02T20:14:08.979Z,99763.06
2023-04-02T20:16:55.701Z,99778.47
2023-04-02T20:19:42.003Z,99783.59
2023-04-02T20:22:28.349Z,99785.38
2023-04-02T20:25:15.006Z,99794.50
2023-04-02T20:28:03.742Z,99791.88
2023-04-02T20:30:51.107Z,99784.28
2023-04-02T20:33:38.012Z,99791.88
2023-04-02T20:36:24.888Z,99794.63
2023-04-02T20:39:17.804Z,99802.34
2023-04-02T20:42:04.236Z,99806.63
2023-04-02T20:44:50.811Z,99807.38
2023-04-02T20:47:37.141Z,99810.91
2023-04-02T20:50:24.024Z,99821.94
2023-04-02T20:53:10.549Z,99821.94
2023-04-02T20:56:15.710Z,99825.25
2023-04-02T20:59:02.066Z,99831.47
2023-04-02T21:01:48.614Z,99829.41
2023-04-02T21:04:35.182Z,99833.97
2023-04-02T21:07:21.471Z,99816.19
2023-04-02T21:10:08.010Z,99840.28
2023-04-02T21:12:54.493Z,99850.72
2023-04-02T21:15:43.177Z,99848.16
2023-04-02T21:18:30.030Z,99848.91
2023-04-02T21:21:17.831Z,99832.31
2023-04-02T21:24:06.644Z,99848.09
2023-04-02T21:26:52.961Z,99849.78
2023-04-02T21:29:39.181Z,99852.59
2023-04-02T21:32:27.212Z,99856.16
2023-04-02T21:35:13.827Z,99852.47
2023-04-02T21:38:00.093Z,99860.16
2023-04-02T21:40:46.591Z,99857.13
2023-04-02T21:43:33.128Z,99864.56
2023-04-02T21:46:22.110Z,99870.63
2023-04-02T21:49:10.618Z,99869.75
2023-04-02T21:51:57.303Z,99847.97
2023-04-02T21:54:43.790Z,99865.91
2023-04-02T21:57:30.342Z,99858.63
2023-04-02T22:00:17.505Z,99868.06
2023-04-02T22:03:04.283Z,99869.69
2023-04-02T22:06:00.910Z,99871.31
2023-04-02T22:08:54.650Z,99867.13
2023-04-02T22:11:47.630Z,99859.09
2023-04-02T22:14:34.282Z,99873.13
2023-04-02T22:17:21.824Z,99865.41
2023-04-02T22:20:09.153Z,99874.06
2023-04-02T22:22:56.516Z,99872.09
2023-04-02T22:25:43.172Z,99883.84
2023-04-02T22:28:29.749Z,99885.69
2023-04-02T22:31:19.743Z,99884.94
2023-04-02T22:34:07.414Z,99877.13
2023-04-02T22:36:53.683Z,99884.94
2023-04-02T22:39:40.014Z,99885.47
2023-04-02T22:42:27.360Z,99883.84
2023-04-02T22:45:15.652Z,99889.03
2023-04-02T22:48:02.169Z,99882.09
2023-04-02T22:50:55.362Z,99883.13
2023-04-02T22:53:42.943Z,99870.13
2023-04-02T22:56:32.139Z,99857.88
2023-04-02T22:59:19.082Z,99877.97
2023-04-02T23:02:05.817Z,99880.34
2023-04-02T23:04:52.384Z,99869.25
2023-04-02T23:07:38.509Z,99865.56
2023-04-02T23:10:29.001Z,99864.13
2023-04-02T23:13:20.002Z,99870.97
2023-04-02T23:16:09.992Z,99882.06
2023-04-02T23:18:57.275Z,99885.97
2023-04-02T23:21:45.821Z,99884.69
2023-04-02T23:24:32.408Z,99884.63
2023-04-02T23:27:18.968Z,99876.81
2023-04-02T23:30:06.510Z,99877.59
2023-04-02T23:32:53.079Z,99883.66
2023-04-02T23:35:39.502Z,99866.84
2023-04-02T23:38:27.294Z,99888.31
2023-04-02T23:41:15.341Z,99882.13
2023-04-02T23:44:02.026Z,99876.09
2023-04-02T23:46:48.521Z,99872.94
2023-04-02T23:49:34.748Z,99878.28
2023-04-02T23:52:24.107Z,99884.63
2023-04-02T23:55:12.133Z,99863.78
2023-04-02T23:57:58.413Z,99877.09
